sensor_id;sensor_type;location;lat;lon;timestamp;P1;durP1;ratioP1;P2;durP2;ratioP2
71648;SDS011;59492;45.638;11.714;2022-07-17T00:01:26;7.50;;;4.70;;
71648;SDS011;59492;45.638;11.714;2022-07-17T00:03:52;6.80;;;5.60;;
71648;SDS011;59492;45.638;11.714;2022-07-17T00:06:18;8.40;;;5.10;;
71648;SDS011;59492;45.638;11.714;2022-07-17T00:08:43;7.00;;;5.50;;
71648;SDS011;59492;45.638;11.714;2022-07-17T00:11:09;6.10;;;5.50;;
71648;SDS011;59492;45.638;11.714;2022-07-17T00:13:35;6.50;;;5.70;;
71648;SDS011;59492;45.638;11.714;2022-07-17T00:16:01;6.60;;;5.20;;
71648;SDS011;59492;45.638;11.714;2022-07-17T00:18:26;7.80;;;5.50;;
71648;SDS011;59492;45.638;11.714;2022-07-17T00:20:52;7.90;;;6.20;;
71648;SDS011;59492;45.638;11.714;2022-07-17T00:23:17;8.10;;;6.20;;
71648;SDS011;59492;45.638;11.714;2022-07-17T00:25:43;9.30;;;5.90;;
71648;SDS011;59492;45.638;11.714;2022-07-17T00:28:09;10.30;;;6.10;;
71648;SDS011;59492;45.638;11.714;2022-07-17T00:30:36;7.00;;;5.70;;
71648;SDS011;59492;45.638;11.714;2022-07-17T00:33:03;8.10;;;6.10;;
71648;SDS011;59492;45.638;11.714;2022-07-17T00:35:29;7.30;;;6.20;;
71648;SDS011;59492;45.638;11.714;2022-07-17T00:37:55;9.00;;;6.70;;
71648;SDS011;59492;45.638;11.714;2022-07-17T00:40:21;7.20;;;6.10;;
71648;SDS011;59492;45.638;11.714;2022-07-17T00:42:49;7.10;;;6.00;;
71648;SDS011;59492;45.638;11.714;2022-07-17T00:45:15;11.70;;;6.00;;
71648;SDS011;59492;45.638;11.714;2022-07-17T00:50:36;10.30;;;6.20;;
71648;SDS011;59492;45.638;11.714;2022-07-17T00:53:04;6.90;;;6.00;;
71648;SDS011;59492;45.638;11.714;2022-07-17T00:55:31;7.40;;;6.40;;
71648;SDS011;59492;45.638;11.714;2022-07-17T00:57:57;6.30;;;5.30;;
71648;SDS011;59492;45.638;11.714;2022-07-17T01:00:27;8.50;;;5.80;;
71648;SDS011;59492;45.638;11.714;2022-07-17T01:02:54;8.60;;;5.50;;
71648;SDS011;59492;45.638;11.714;2022-07-17T01:05:20;10.00;;;6.40;;
71648;SDS011;59492;45.638;11.714;2022-07-17T01:07:47;6.60;;;5.60;;
71648;SDS011;59492;45.638;11.714;2022-07-17T01:10:14;8.10;;;6.00;;
71648;SDS011;59492;45.638;11.714;2022-07-17T01:12:44;6.40;;;5.80;;
71648;SDS011;59492;45.638;11.714;2022-07-17T01:15:11;8.00;;;6.20;;
71648;SDS011;59492;45.638;11.714;2022-07-17T01:17:37;6.00;;;5.50;;
71648;SDS011;59492;45.638;11.714;2022-07-17T01:20:05;7.50;;;5.60;;
71648;SDS011;59492;45.638;11.714;2022-07-17T01:22:32;7.40;;;5.90;;
71648;SDS011;59492;45.638;11.714;2022-07-17T01:25:04;6.40;;;5.80;;
71648;SDS011;59492;45.638;11.714;2022-07-17T01:27:31;6.80;;;6.20;;
71648;SDS011;59492;45.638;11.714;2022-07-17T01:29:56;6.80;;;5.80;;
71648;SDS011;59492;45.638;11.714;2022-07-17T01:32:30;6.60;;;5.70;;
71648;SDS011;59492;45.638;11.714;2022-07-17T01:34:57;8.30;;;5.60;;
71648;SDS011;59492;45.638;11.714;2022-07-17T01:37:22;6.50;;;5.70;;
71648;SDS011;59492;45.638;11.714;2022-07-17T01:39:48;7.10;;;5.90;;
71648;SDS011;59492;45.638;11.714;2022-07-17T01:42:20;7.00;;;6.00;;
71648;SDS011;59492;45.638;11.714;2022-07-17T01:44:48;6.20;;;5.60;;
71648;SDS011;59492;45.638;11.714;2022-07-17T01:47:14;6.60;;;5.60;;
71648;SDS011;59492;45.638;11.714;2022-07-17T01:49:47;6.20;;;5.60;;
71648;SDS011;59492;45.638;11.714;2022-07-17T01:52:15;6.40;;;5.70;;
71648;SDS011;59492;45.638;11.714;2022-07-17T01:54:41;6.70;;;5.60;;
71648;SDS011;59492;45.638;11.714;2022-07-17T01:57:08;6.70;;;6.00;;
71648;SDS011;59492;45.638;11.714;2022-07-17T01:59:34;5.90;;;5.40;;
71648;SDS011;59492;45.638;11.714;2022-07-17T02:02:01;6.50;;;5.90;;
71648;SDS011;59492;45.638;11.714;2022-07-17T02:04:27;6.50;;;5.90;;
71648;SDS011;59492;45.638;11.714;2022-07-17T02:06:54;6.30;;;5.80;;
71648;SDS011;59492;45.638;11.714;2022-07-17T02:09:20;6.60;;;6.00;;
71648;SDS011;59492;45.638;11.714;2022-07-17T02:11:47;8.00;;;6.20;;
71648;SDS011;59492;45.638;11.714;2022-07-17T02:14:13;6.40;;;5.60;;
71648;SDS011;59492;45.638;11.714;2022-07-17T02:16:39;8.60;;;6.10;;
71648;SDS011;59492;45.638;11.714;2022-07-17T02:19:04;9.20;;;5.90;;
71648;SDS011;59492;45.638;11.714;2022-07-17T02:21:30;6.20;;;5.60;;
71648;SDS011;59492;45.638;11.714;2022-07-17T02:23:56;7.40;;;5.60;;
71648;SDS011;59492;45.638;11.714;2022-07-17T02:26:21;7.00;;;5.50;;
71648;SDS011;59492;45.638;11.714;2022-07-17T02:28:47;6.60;;;5.90;;
71648;SDS011;59492;45.638;11.714;2022-07-17T02:31:13;6.20;;;5.10;;
71648;SDS011;59492;45.638;11.714;2022-07-17T02:33:38;7.20;;;6.00;;
71648;SDS011;59492;45.638;11.714;2022-07-17T02:36:04;7.30;;;5.50;;
71648;SDS011;59492;45.638;11.714;2022-07-17T02:38:30;6.50;;;5.50;;
71648;SDS011;59492;45.638;11.714;2022-07-17T02:40:56;7.70;;;5.10;;
71648;SDS011;59492;45.638;11.714;2022-07-17T02:43:22;6.10;;;5.50;;
71648;SDS011;59492;45.638;11.714;2022-07-17T02:45:47;5.80;;;5.20;;
71648;SDS011;59492;45.638;11.714;2022-07-17T02:48:13;6.70;;;5.30;;
71648;SDS011;59492;45.638;11.714;2022-07-17T02:50:39;6.10;;;5.20;;
71648;SDS011;59492;45.638;11.714;2022-07-17T02:53:05;6.30;;;5.10;;
71648;SDS011;59492;45.638;11.714;2022-07-17T02:55:30;7.30;;;5.20;;
71648;SDS011;59492;45.638;11.714;2022-07-17T02:57:56;6.90;;;5.40;;
71648;SDS011;59492;45.638;11.714;2022-07-17T03:00:21;6.30;;;5.10;;
71648;SDS011;59492;45.638;11.714;2022-07-17T03:02:47;7.80;;;4.90;;
71648;SDS011;59492;45.638;11.714;2022-07-17T03:05:14;6.00;;;5.20;;
71648;SDS011;59492;45.638;11.714;2022-07-17T03:07:41;6.40;;;4.70;;
71648;SDS011;59492;45.638;11.714;2022-07-17T03:10:07;5.50;;;4.80;;
71648;SDS011;59492;45.638;11.714;2022-07-17T03:12:33;5.40;;;4.90;;
71648;SDS011;59492;45.638;11.714;2022-07-17T03:14:59;5.30;;;4.80;;
71648;SDS011;59492;45.638;11.714;2022-07-17T03:17:25;5.10;;;4.70;;
71648;SDS011;59492;45.638;11.714;2022-07-17T03:19:51;5.30;;;4.80;;
71648;SDS011;59492;45.638;11.714;2022-07-17T03:22:17;5.50;;;5.00;;
71648;SDS011;59492;45.638;11.714;2022-07-17T03:24:43;6.40;;;5.50;;
71648;SDS011;59492;45.638;11.714;2022-07-17T03:27:09;6.10;;;5.00;;
71648;SDS011;59492;45.638;11.714;2022-07-17T03:29:35;6.20;;;4.70;;
71648;SDS011;59492;45.638;11.714;2022-07-17T03:32:01;7.90;;;4.70;;
71648;SDS011;59492;45.638;11.714;2022-07-17T03:34:26;7.00;;;4.90;;
71648;SDS011;59492;45.638;11.714;2022-07-17T03:36:52;5.60;;;4.40;;
71648;SDS011;59492;45.638;11.714;2022-07-17T03:39:18;7.70;;;4.90;;
71648;SDS011;59492;45.638;11.714;2022-07-17T03:41:43;5.80;;;4.80;;
71648;SDS011;59492;45.638;11.714;2022-07-17T03:44:09;6.30;;;4.50;;
71648;SDS011;59492;45.638;11.714;2022-07-17T03:46:34;6.10;;;4.40;;
71648;SDS011;59492;45.638;11.714;2022-07-17T03:49:00;5.60;;;4.50;;
71648;SDS011;59492;45.638;11.714;2022-07-17T03:51:26;5.70;;;4.50;;
71648;SDS011;59492;45.638;11.714;2022-07-17T03:53:51;5.20;;;4.60;;
71648;SDS011;59492;45.638;11.714;2022-07-17T03:56:17;5.30;;;4.60;;
71648;SDS011;59492;45.638;11.714;2022-07-17T03:58:43;5.20;;;4.60;;
71648;SDS011;59492;45.638;11.714;2022-07-17T04:01:09;6.60;;;4.50;;
71648;SDS011;59492;45.638;11.714;2022-07-17T04:03:34;9.00;;;4.70;;
71648;SDS011;59492;45.638;11.714;2022-07-17T04:06:00;5.00;;;4.50;;
71648;SDS011;59492;45.638;11.714;2022-07-17T04:08:26;5.80;;;3.90;;
71648;SDS011;59492;45.638;11.714;2022-07-17T04:10:51;4.70;;;4.30;;
71648;SDS011;59492;45.638;11.714;2022-07-17T04:13:17;5.50;;;4.30;;
71648;SDS011;59492;45.638;11.714;2022-07-17T04:15:43;7.40;;;4.30;;
71648;SDS011;59492;45.638;11.714;2022-07-17T04:18:15;5.10;;;4.40;;
71648;SDS011;59492;45.638;11.714;2022-07-17T04:20:41;5.10;;;4.10;;
71648;SDS011;59492;45.638;11.714;2022-07-17T04:23:07;6.80;;;4.20;;
71648;SDS011;59492;45.638;11.714;2022-07-17T04:25:33;6.50;;;4.20;;
71648;SDS011;59492;45.638;11.714;2022-07-17T04:27:58;4.50;;;4.10;;
71648;SDS011;59492;45.638;11.714;2022-07-17T04:30:24;4.60;;;4.20;;
71648;SDS011;59492;45.638;11.714;2022-07-17T04:32:50;4.80;;;3.70;;
71648;SDS011;59492;45.638;11.714;2022-07-17T04:35:15;4.50;;;3.60;;
71648;SDS011;59492;45.638;11.714;2022-07-17T04:37:41;5.10;;;4.20;;
71648;SDS011;59492;45.638;11.714;2022-07-17T04:40:07;5.20;;;4.30;;
71648;SDS011;59492;45.638;11.714;2022-07-17T04:42:34;5.70;;;4.20;;
71648;SDS011;59492;45.638;11.714;2022-07-17T04:44:59;6.10;;;4.00;;
71648;SDS011;59492;45.638;11.714;2022-07-17T04:47:25;4.70;;;4.20;;
71648;SDS011;59492;45.638;11.714;2022-07-17T04:49:51;5.30;;;3.80;;
71648;SDS011;59492;45.638;11.714;2022-07-17T04:52:16;6.10;;;4.20;;
71648;SDS011;59492;45.638;11.714;2022-07-17T04:54:42;4.20;;;3.90;;
71648;SDS011;59492;45.638;11.714;2022-07-17T04:57:07;5.00;;;3.80;;
71648;SDS011;59492;45.638;11.714;2022-07-17T04:59:33;4.70;;;4.20;;
71648;SDS011;59492;45.638;11.714;2022-07-17T05:01:58;4.40;;;4.00;;
71648;SDS011;59492;45.638;11.714;2022-07-17T05:04:24;4.40;;;4.00;;
71648;SDS011;59492;45.638;11.714;2022-07-17T05:06:50;5.00;;;3.90;;
71648;SDS011;59492;45.638;11.714;2022-07-17T05:09:15;5.20;;;4.00;;
71648;SDS011;59492;45.638;11.714;2022-07-17T05:11:42;5.50;;;4.30;;
71648;SDS011;59492;45.638;11.714;2022-07-17T05:14:13;4.40;;;4.00;;
71648;SDS011;59492;45.638;11.714;2022-07-17T05:16:39;6.20;;;4.20;;
71648;SDS011;59492;45.638;11.714;2022-07-17T05:19:05;4.90;;;3.80;;
71648;SDS011;59492;45.638;11.714;2022-07-17T05:21:31;4.70;;;4.00;;
71648;SDS011;59492;45.638;11.714;2022-07-17T05:23:57;5.20;;;3.80;;
71648;SDS011;59492;45.638;11.714;2022-07-17T05:26:23;4.40;;;4.00;;
71648;SDS011;59492;45.638;11.714;2022-07-17T05:28:51;4.90;;;4.10;;
71648;SDS011;59492;45.638;11.714;2022-07-17T05:31:24;6.80;;;4.10;;
71648;SDS011;59492;45.638;11.714;2022-07-17T05:33:50;6.30;;;4.20;;
71648;SDS011;59492;45.638;11.714;2022-07-17T05:36:16;4.30;;;3.90;;
71648;SDS011;59492;45.638;11.714;2022-07-17T05:38:44;5.20;;;4.10;;
71648;SDS011;59492;45.638;11.714;2022-07-17T05:41:11;6.30;;;4.30;;
71648;SDS011;59492;45.638;11.714;2022-07-17T05:43:38;7.20;;;4.00;;
71648;SDS011;59492;45.638;11.714;2022-07-17T05:46:08;4.90;;;4.00;;
71648;SDS011;59492;45.638;11.714;2022-07-17T05:48:34;3.80;;;3.50;;
71648;SDS011;59492;45.638;11.714;2022-07-17T05:51:01;4.20;;;3.80;;
71648;SDS011;59492;45.638;11.714;2022-07-17T05:53:31;4.50;;;4.00;;
71648;SDS011;59492;45.638;11.714;2022-07-17T05:55:58;5.70;;;3.90;;
71648;SDS011;59492;45.638;11.714;2022-07-17T05:58:28;4.40;;;3.80;;
71648;SDS011;59492;45.638;11.714;2022-07-17T06:00:55;5.10;;;3.90;;
71648;SDS011;59492;45.638;11.714;2022-07-17T06:03:23;4.40;;;4.00;;
71648;SDS011;59492;45.638;11.714;2022-07-17T06:05:49;4.40;;;4.00;;
71648;SDS011;59492;45.638;11.714;2022-07-17T06:08:15;4.00;;;3.60;;
71648;SDS011;59492;45.638;11.714;2022-07-17T06:10:44;4.30;;;3.90;;
71648;SDS011;59492;45.638;11.714;2022-07-17T06:13:10;4.40;;;4.00;;
71648;SDS011;59492;45.638;11.714;2022-07-17T06:15:35;6.50;;;4.00;;
71648;SDS011;59492;45.638;11.714;2022-07-17T06:18:03;4.40;;;4.00;;
71648;SDS011;59492;45.638;11.714;2022-07-17T06:20:36;5.40;;;3.80;;
71648;SDS011;59492;45.638;11.714;2022-07-17T06:23:02;4.50;;;4.10;;
71648;SDS011;59492;45.638;11.714;2022-07-17T06:25:29;4.90;;;4.20;;
71648;SDS011;59492;45.638;11.714;2022-07-17T06:27:56;4.60;;;4.20;;
71648;SDS011;59492;45.638;11.714;2022-07-17T06:30:22;4.40;;;3.70;;
71648;SDS011;59492;45.638;11.714;2022-07-17T06:32:48;4.10;;;3.70;;
71648;SDS011;59492;45.638;11.714;2022-07-17T06:35:14;4.80;;;3.80;;
71648;SDS011;59492;45.638;11.714;2022-07-17T06:37:39;5.80;;;3.60;;
71648;SDS011;59492;45.638;11.714;2022-07-17T06:40:05;6.10;;;3.80;;
71648;SDS011;59492;45.638;11.714;2022-07-17T06:42:31;14.50;;;3.90;;
71648;SDS011;59492;45.638;11.714;2022-07-17T06:44:57;4.70;;;3.60;;
71648;SDS011;59492;45.638;11.714;2022-07-17T06:47:22;4.00;;;3.20;;
71648;SDS011;59492;45.638;11.714;2022-07-17T06:49:48;9.60;;;3.80;;
71648;SDS011;59492;45.638;11.714;2022-07-17T06:52:13;7.40;;;3.60;;
71648;SDS011;59492;45.638;11.714;2022-07-17T06:54:39;10.00;;;3.90;;
71648;SDS011;59492;45.638;11.714;2022-07-17T06:57:05;10.90;;;4.30;;
71648;SDS011;59492;45.638;11.714;2022-07-17T06:59:30;8.70;;;4.10;;
71648;SDS011;59492;45.638;11.714;2022-07-17T07:01:56;4.90;;;4.10;;
71648;SDS011;59492;45.638;11.714;2022-07-17T07:04:21;7.40;;;4.20;;
71648;SDS011;59492;45.638;11.714;2022-07-17T07:06:47;5.20;;;3.60;;
71648;SDS011;59492;45.638;11.714;2022-07-17T07:09:13;8.50;;;3.40;;
71648;SDS011;59492;45.638;11.714;2022-07-17T07:11:39;8.00;;;4.10;;
71648;SDS011;59492;45.638;11.714;2022-07-17T07:14:05;9.80;;;3.40;;
71648;SDS011;59492;45.638;11.714;2022-07-17T07:16:32;6.00;;;3.30;;
71648;SDS011;59492;45.638;11.714;2022-07-17T07:18:58;8.30;;;4.00;;
71648;SDS011;59492;45.638;11.714;2022-07-17T07:21:24;7.40;;;3.70;;
71648;SDS011;59492;45.638;11.714;2022-07-17T07:23:51;4.20;;;3.50;;
71648;SDS011;59492;45.638;11.714;2022-07-17T07:26:20;5.70;;;4.00;;
71648;SDS011;59492;45.638;11.714;2022-07-17T07:28:47;7.30;;;3.60;;
71648;SDS011;59492;45.638;11.714;2022-07-17T07:31:12;6.00;;;3.70;;
71648;SDS011;59492;45.638;11.714;2022-07-17T07:33:38;5.90;;;3.60;;
71648;SDS011;59492;45.638;11.714;2022-07-17T07:36:05;5.20;;;3.80;;
71648;SDS011;59492;45.638;11.714;2022-07-17T07:38:31;7.20;;;3.60;;
71648;SDS011;59492;45.638;11.714;2022-07-17T07:40:56;4.70;;;3.90;;
71648;SDS011;59492;45.638;11.714;2022-07-17T07:43:22;8.10;;;3.80;;
71648;SDS011;59492;45.638;11.714;2022-07-17T07:45:49;4.50;;;3.50;;
71648;SDS011;59492;45.638;11.714;2022-07-17T07:48:14;6.50;;;4.10;;
71648;SDS011;59492;45.638;11.714;2022-07-17T07:50:40;5.80;;;3.60;;
71648;SDS011;59492;45.638;11.714;2022-07-17T07:53:06;3.90;;;3.50;;
71648;SDS011;59492;45.638;11.714;2022-07-17T07:55:31;6.50;;;3.40;;
71648;SDS011;59492;45.638;11.714;2022-07-17T07:58:07;6.60;;;4.00;;
71648;SDS011;59492;45.638;11.714;2022-07-17T08:00:35;5.90;;;3.50;;
71648;SDS011;59492;45.638;11.714;2022-07-17T08:03:02;6.00;;;3.70;;
71648;SDS011;59492;45.638;11.714;2022-07-17T08:05:28;9.90;;;3.60;;
71648;SDS011;59492;45.638;11.714;2022-07-17T08:07:54;3.70;;;3.30;;
71648;SDS011;59492;45.638;11.714;2022-07-17T08:10:23;5.20;;;3.40;;
71648;SDS011;59492;45.638;11.714;2022-07-17T08:12:55;6.30;;;3.50;;
71648;SDS011;59492;45.638;11.714;2022-07-17T08:15:21;3.60;;;3.30;;
71648;SDS011;59492;45.638;11.714;2022-07-17T08:17:48;4.60;;;3.30;;
71648;SDS011;59492;45.638;11.714;2022-07-17T08:20:16;6.40;;;3.20;;
71648;SDS011;59492;45.638;11.714;2022-07-17T08:22:42;5.00;;;3.60;;
71648;SDS011;59492;45.638;11.714;2022-07-17T08:25:09;5.10;;;3.20;;
71648;SDS011;59492;45.638;11.714;2022-07-17T08:27:36;6.70;;;3.20;;
71648;SDS011;59492;45.638;11.714;2022-07-17T08:30:03;4.10;;;3.50;;
71648;SDS011;59492;45.638;11.714;2022-07-17T08:32:29;4.50;;;3.30;;
71648;SDS011;59492;45.638;11.714;2022-07-17T08:34:55;3.70;;;3.30;;
71648;SDS011;59492;45.638;11.714;2022-07-17T08:37:21;3.60;;;3.20;;
71648;SDS011;59492;45.638;11.714;2022-07-17T08:39:46;4.50;;;3.90;;
71648;SDS011;59492;45.638;11.714;2022-07-17T08:42:12;3.60;;;3.20;;
71648;SDS011;59492;45.638;11.714;2022-07-17T08:44:44;5.60;;;3.20;;
71648;SDS011;59492;45.638;11.714;2022-07-17T08:47:11;3.90;;;3.10;;
71648;SDS011;59492;45.638;11.714;2022-07-17T08:49:38;3.90;;;3.20;;
71648;SDS011;59492;45.638;11.714;2022-07-17T08:52:11;3.80;;;3.40;;
71648;SDS011;59492;45.638;11.714;2022-07-17T08:54:37;3.50;;;3.20;;
71648;SDS011;59492;45.638;11.714;2022-07-17T08:57:04;4.30;;;3.50;;
71648;SDS011;59492;45.638;11.714;2022-07-17T08:59:30;3.40;;;3.00;;
71648;SDS011;59492;45.638;11.714;2022-07-17T09:01:57;3.30;;;3.00;;
71648;SDS011;59492;45.638;11.714;2022-07-17T09:04:23;4.10;;;3.10;;
71648;SDS011;59492;45.638;11.714;2022-07-17T09:07:02;5.10;;;3.20;;
71648;SDS011;59492;45.638;11.714;2022-07-17T09:09:29;4.80;;;3.10;;
71648;SDS011;59492;45.638;11.714;2022-07-17T09:11:56;3.90;;;3.20;;
71648;SDS011;59492;45.638;11.714;2022-07-17T09:14:38;5.00;;;3.20;;
71648;SDS011;59492;45.638;11.714;2022-07-17T09:17:05;3.20;;;2.90;;
71648;SDS011;59492;45.638;11.714;2022-07-17T09:19:37;4.50;;;3.20;;
71648;SDS011;59492;45.638;11.714;2022-07-17T09:27:11;5.40;;;3.10;;
71648;SDS011;59492;45.638;11.714;2022-07-17T09:29:52;4.30;;;3.10;;
71648;SDS011;59492;45.638;11.714;2022-07-17T09:32:24;4.00;;;3.20;;
71648;SDS011;59492;45.638;11.714;2022-07-17T09:34:56;4.00;;;3.50;;
71648;SDS011;59492;45.638;11.714;2022-07-17T09:37:24;4.40;;;3.40;;
71648;SDS011;59492;45.638;11.714;2022-07-17T09:39:51;4.30;;;3.20;;
71648;SDS011;59492;45.638;11.714;2022-07-17T09:42:36;4.40;;;3.10;;
71648;SDS011;59492;45.638;11.714;2022-07-17T09:45:06;3.60;;;3.00;;
71648;SDS011;59492;45.638;11.714;2022-07-17T09:47:35;3.50;;;3.10;;
71648;SDS011;59492;45.638;11.714;2022-07-17T09:50:03;4.00;;;2.90;;
71648;SDS011;59492;45.638;11.714;2022-07-17T09:52:32;4.60;;;2.90;;
71648;SDS011;59492;45.638;11.714;2022-07-17T09:55:00;4.60;;;3.30;;
71648;SDS011;59492;45.638;11.714;2022-07-17T09:57:28;3.40;;;3.10;;
71648;SDS011;59492;45.638;11.714;2022-07-17T09:59:56;3.40;;;2.90;;
71648;SDS011;59492;45.638;11.714;2022-07-17T10:02:27;3.50;;;3.20;;
71648;SDS011;59492;45.638;11.714;2022-07-17T10:04:54;4.00;;;3.40;;
71648;SDS011;59492;45.638;11.714;2022-07-17T10:07:20;3.20;;;2.90;;
71648;SDS011;59492;45.638;11.714;2022-07-17T10:09:46;3.80;;;2.90;;
71648;SDS011;59492;45.638;11.714;2022-07-17T10:12:13;3.30;;;3.00;;
71648;SDS011;59492;45.638;11.714;2022-07-17T10:14:40;3.20;;;2.90;;
71648;SDS011;59492;45.638;11.714;2022-07-17T10:17:09;3.50;;;3.10;;
71648;SDS011;59492;45.638;11.714;2022-07-17T10:19:49;3.10;;;2.80;;
71648;SDS011;59492;45.638;11.714;2022-07-17T10:22:16;3.30;;;3.00;;
71648;SDS011;59492;45.638;11.714;2022-07-17T10:24:52;4.20;;;3.40;;
71648;SDS011;59492;45.638;11.714;2022-07-17T10:27:21;5.60;;;3.00;;
71648;SDS011;59492;45.638;11.714;2022-07-17T10:29:59;3.80;;;2.80;;
71648;SDS011;59492;45.638;11.714;2022-07-17T10:32:25;3.30;;;3.00;;
71648;SDS011;59492;45.638;11.714;2022-07-17T10:37:26;4.10;;;3.10;;
71648;SDS011;59492;45.638;11.714;2022-07-17T10:40:00;3.30;;;2.90;;
71648;SDS011;59492;45.638;11.714;2022-07-17T10:45:10;3.50;;;3.10;;
71648;SDS011;59492;45.638;11.714;2022-07-17T10:50:45;3.40;;;2.80;;
71648;SDS011;59492;45.638;11.714;2022-07-17T10:53:17;3.20;;;2.80;;
71648;SDS011;59492;45.638;11.714;2022-07-17T10:58:34;3.80;;;3.00;;
71648;SDS011;59492;45.638;11.714;2022-07-17T11:01:10;3.10;;;2.80;;
71648;SDS011;59492;45.638;11.714;2022-07-17T11:03:47;3.50;;;3.20;;
71648;SDS011;59492;45.638;11.714;2022-07-17T11:11:18;3.20;;;2.90;;
71648;SDS011;59492;45.638;11.714;2022-07-17T11:13:46;3.20;;;2.90;;
71648;SDS011;59492;45.638;11.714;2022-07-17T11:16:12;3.60;;;2.90;;
71648;SDS011;59492;45.638;11.714;2022-07-17T11:18:48;5.30;;;2.90;;
71648;SDS011;59492;45.638;11.714;2022-07-17T11:21:13;3.10;;;2.80;;
71648;SDS011;59492;45.638;11.714;2022-07-17T11:23:49;3.00;;;2.70;;
71648;SDS011;59492;45.638;11.714;2022-07-17T11:26:17;3.00;;;2.50;;
71648;SDS011;59492;45.638;11.714;2022-07-17T11:28:45;3.60;;;3.00;;
71648;SDS011;59492;45.638;11.714;2022-07-17T11:31:16;3.60;;;3.30;;
71648;SDS011;59492;45.638;11.714;2022-07-17T11:33:47;4.10;;;2.90;;
71648;SDS011;59492;45.638;11.714;2022-07-17T11:36:22;3.10;;;2.80;;
71648;SDS011;59492;45.638;11.714;2022-07-17T11:38:54;3.20;;;2.90;;
71648;SDS011;59492;45.638;11.714;2022-07-17T11:41:45;3.10;;;2.60;;
71648;SDS011;59492;45.638;11.714;2022-07-17T11:44:16;2.80;;;2.60;;
71648;SDS011;59492;45.638;11.714;2022-07-17T11:46:47;2.90;;;2.70;;
71648;SDS011;59492;45.638;11.714;2022-07-17T11:49:24;3.40;;;2.70;;
71648;SDS011;59492;45.638;11.714;2022-07-17T11:51:54;5.40;;;3.30;;
71648;SDS011;59492;45.638;11.714;2022-07-17T11:54:21;6.20;;;3.80;;
71648;SDS011;59492;45.638;11.714;2022-07-17T11:56:53;8.40;;;4.10;;
71648;SDS011;59492;45.638;11.714;2022-07-17T11:59:31;10.60;;;4.10;;
71648;SDS011;59492;45.638;11.714;2022-07-17T12:02:06;11.90;;;4.50;;
71648;SDS011;59492;45.638;11.714;2022-07-17T12:04:36;9.00;;;4.20;;
71648;SDS011;59492;45.638;11.714;2022-07-17T12:07:12;10.30;;;4.70;;
71648;SDS011;59492;45.638;11.714;2022-07-17T12:09:38;13.50;;;4.50;;
71648;SDS011;59492;45.638;11.714;2022-07-17T12:12:04;9.70;;;4.10;;
71648;SDS011;59492;45.638;11.714;2022-07-17T12:14:30;11.60;;;4.10;;
71648;SDS011;59492;45.638;11.714;2022-07-17T12:16:56;11.00;;;4.70;;
71648;SDS011;59492;45.638;11.714;2022-07-17T12:19:26;11.20;;;4.50;;
71648;SDS011;59492;45.638;11.714;2022-07-17T12:24:39;10.90;;;4.20;;
71648;SDS011;59492;45.638;11.714;2022-07-17T12:27:08;12.20;;;4.40;;
71648;SDS011;59492;45.638;11.714;2022-07-17T12:29:38;9.80;;;4.10;;
71648;SDS011;59492;45.638;11.714;2022-07-17T12:32:09;8.30;;;4.60;;
71648;SDS011;59492;45.638;11.714;2022-07-17T12:34:38;10.70;;;4.50;;
71648;SDS011;59492;45.638;11.714;2022-07-17T12:37:19;9.00;;;4.10;;
71648;SDS011;59492;45.638;11.714;2022-07-17T12:39:46;9.40;;;4.10;;
71648;SDS011;59492;45.638;11.714;2022-07-17T12:42:16;6.80;;;4.10;;
71648;SDS011;59492;45.638;11.714;2022-07-17T12:44:42;7.30;;;4.00;;
71648;SDS011;59492;45.638;11.714;2022-07-17T12:47:09;8.30;;;4.20;;
71648;SDS011;59492;45.638;11.714;2022-07-17T12:49:34;6.50;;;3.90;;
71648;SDS011;59492;45.638;11.714;2022-07-17T12:52:01;7.30;;;3.70;;
71648;SDS011;59492;45.638;11.714;2022-07-17T12:54:27;5.50;;;3.90;;
71648;SDS011;59492;45.638;11.714;2022-07-17T12:56:52;6.90;;;4.00;;
71648;SDS011;59492;45.638;11.714;2022-07-17T12:59:18;7.50;;;4.00;;
71648;SDS011;59492;45.638;11.714;2022-07-17T13:01:45;6.90;;;3.50;;
71648;SDS011;59492;45.638;11.714;2022-07-17T13:04:11;7.50;;;3.30;;
71648;SDS011;59492;45.638;11.714;2022-07-17T13:06:36;8.10;;;3.80;;
71648;SDS011;59492;45.638;11.714;2022-07-17T13:09:02;7.10;;;3.40;;
71648;SDS011;59492;45.638;11.714;2022-07-17T13:11:28;6.20;;;3.90;;
71648;SDS011;59492;45.638;11.714;2022-07-17T13:13:54;7.90;;;3.90;;
71648;SDS011;59492;45.638;11.714;2022-07-17T13:16:20;8.80;;;3.80;;
71648;SDS011;59492;45.638;11.714;2022-07-17T13:18:46;7.40;;;3.90;;
71648;SDS011;59492;45.638;11.714;2022-07-17T13:21:12;6.00;;;3.50;;
71648;SDS011;59492;45.638;11.714;2022-07-17T13:23:38;5.30;;;3.80;;
71648;SDS011;59492;45.638;11.714;2022-07-17T13:26:06;4.70;;;3.40;;
71648;SDS011;59492;45.638;11.714;2022-07-17T13:28:39;5.10;;;3.20;;
71648;SDS011;59492;45.638;11.714;2022-07-17T13:31:09;5.60;;;3.20;;
71648;SDS011;59492;45.638;11.714;2022-07-17T13:33:53;8.40;;;3.40;;
71648;SDS011;59492;45.638;11.714;2022-07-17T13:36:19;6.90;;;3.30;;
71648;SDS011;59492;45.638;11.714;2022-07-17T13:38:44;5.00;;;3.40;;
71648;SDS011;59492;45.638;11.714;2022-07-17T13:41:10;5.10;;;3.20;;
71648;SDS011;59492;45.638;11.714;2022-07-17T13:43:35;5.90;;;3.60;;
71648;SDS011;59492;45.638;11.714;2022-07-17T13:46:01;8.20;;;3.50;;
71648;SDS011;59492;45.638;11.714;2022-07-17T13:48:27;5.40;;;3.40;;
71648;SDS011;59492;45.638;11.714;2022-07-17T13:50:52;6.00;;;3.40;;
71648;SDS011;59492;45.638;11.714;2022-07-17T13:53:18;4.90;;;3.10;;
71648;SDS011;59492;45.638;11.714;2022-07-17T13:55:43;4.40;;;3.00;;
71648;SDS011;59492;45.638;11.714;2022-07-17T13:58:12;5.20;;;3.10;;
71648;SDS011;59492;45.638;11.714;2022-07-17T14:00:43;5.70;;;3.00;;
71648;SDS011;59492;45.638;11.714;2022-07-17T14:03:16;5.20;;;3.00;;
71648;SDS011;59492;45.638;11.714;2022-07-17T14:05:41;6.10;;;3.40;;
71648;SDS011;59492;45.638;11.714;2022-07-17T14:08:07;4.40;;;2.90;;
71648;SDS011;59492;45.638;11.714;2022-07-17T14:10:33;4.00;;;3.00;;
71648;SDS011;59492;45.638;11.714;2022-07-17T14:12:59;7.80;;;3.20;;
71648;SDS011;59492;45.638;11.714;2022-07-17T14:15:24;4.70;;;3.10;;
71648;SDS011;59492;45.638;11.714;2022-07-17T14:17:50;6.00;;;3.30;;
71648;SDS011;59492;45.638;11.714;2022-07-17T14:20:15;4.90;;;3.10;;
71648;SDS011;59492;45.638;11.714;2022-07-17T14:22:41;4.40;;;3.00;;
71648;SDS011;59492;45.638;11.714;2022-07-17T14:25:07;6.80;;;3.00;;
71648;SDS011;59492;45.638;11.714;2022-07-17T14:27:33;6.10;;;3.00;;
71648;SDS011;59492;45.638;11.714;2022-07-17T14:29:58;5.00;;;3.60;;
71648;SDS011;59492;45.638;11.714;2022-07-17T14:32:24;5.90;;;3.10;;
71648;SDS011;59492;45.638;11.714;2022-07-17T14:34:50;4.30;;;3.00;;
71648;SDS011;59492;45.638;11.714;2022-07-17T14:37:15;3.40;;;2.50;;
71648;SDS011;59492;45.638;11.714;2022-07-17T14:39:41;4.60;;;3.20;;
71648;SDS011;59492;45.638;11.714;2022-07-17T14:42:07;5.40;;;2.90;;
71648;SDS011;59492;45.638;11.714;2022-07-17T14:44:32;5.10;;;3.00;;
71648;SDS011;59492;45.638;11.714;2022-07-17T14:46:59;4.80;;;2.70;;
71648;SDS011;59492;45.638;11.714;2022-07-17T14:49:25;8.30;;;2.90;;
71648;SDS011;59492;45.638;11.714;2022-07-17T14:51:51;6.10;;;3.60;;
71648;SDS011;59492;45.638;11.714;2022-07-17T14:54:17;7.50;;;3.40;;
71648;SDS011;59492;45.638;11.714;2022-07-17T14:56:42;7.70;;;3.40;;
71648;SDS011;59492;45.638;11.714;2022-07-17T14:59:08;5.40;;;3.40;;
71648;SDS011;59492;45.638;11.714;2022-07-17T15:01:34;5.90;;;3.80;;